Time;durP1;ratioP1;P1;durP2;ratioP2;P2;SDS_P1;SDS_P2;PMS_P1;PMS_P2;Temp;Humidity;BMP_temperature;BMP_pressure;BME280_temperature;BME280_humidity;BME280_pressure;Samples;Min_cycle;Max_cycle;Signal;HPM_P1;HPM_P2
2023/04/03 00:02:01;;;;;;;3.50;1.80;;;-1.30;99.90;;;;;;5017263;23;20232;-74
2023/04/03 00:04:28;;;;;;;7.97;2.53;;;-1.30;99.90;;;;;;5019535;28;20234;-74
2023/04/03 00:06:56;;;;;;;5.50;1.80;;;-1.30;99.90;;;;;;5001729;23;20223;-77
2023/04/03 00:09:23;;;;;;;6.63;2.47;;;-1.40;99.90;;;;;;4982796;28;20883;-74
2023/04/03 00:11:50;;;;;;;4.47;1.77;;;-1.40;99.90;;;;;;5002250;28;20308;-74
2023/04/03 00:14:17;;;;;;;5.60;2.23;;;-1.40;99.90;;;;;;4981483;28;20228;-74
2023/04/03 00:16:43;;;;;;;7.77;2.37;;;-1.50;99.90;;;;;;5015898;23;20240;-74
2023/04/03 00:19:12;;;;;;;7.80;2.80;;;-1.40;99.90;;;;;;5017867;28;20225;-77
2023/04/03 00:21:39;;;;;;;7.00;2.30;;;-1.50;99.90;;;;;;5019014;28;20244;-74
2023/04/03 00:24:09;;;;;;;7.97;2.20;;;-1.50;99.90;;;;;;5016983;28;20243;-74
2023/04/03 00:26:36;;;;;;;7.77;2.37;;;-1.50;99.90;;;;;;5002623;23;20239;-79
2023/04/03 00:29:03;;;;;;;4.87;2.30;;;-1.50;99.90;;;;;;5016791;28;20216;-77
2023/04/03 00:31:29;;;;;;;4.03;2.20;;;-1.60;99.90;;;;;;5015884;28;20233;-80
2023/04/03 00:33:56;;;;;;;4.73;2.13;;;-1.60;99.90;;;;;;5016222;28;20282;-79
2023/04/03 00:36:23;;;;;;;6.23;1.90;;;-1.60;99.90;;;;;;5003956;28;20252;-77
2023/04/03 00:38:50;;;;;;;7.10;2.10;;;-1.60;99.90;;;;;;5002168;28;20593;-77
2023/04/03 00:41:18;;;;;;;7.47;2.43;;;-1.70;99.90;;;;;;4996665;28;20224;-77
2023/04/03 00:43:45;;;;;;;5.07;2.03;;;-1.70;99.90;;;;;;4950199;23;1062315;-75
2023/04/03 00:48:42;;;;;;;9.57;2.03;;;-1.70;99.90;;;;;;4983668;23;20267;-81
2023/04/03 00:51:12;;;;;;;8.30;2.07;;;-1.70;99.90;;;;;;5000126;28;20332;-74
2023/04/03 00:53:42;;;;;;;5.33;2.10;;;-1.80;99.90;;;;;;4998218;28;20214;-77
2023/04/03 00:56:13;;;;;;;5.67;1.90;;;-1.80;99.90;;;;;;5004516;23;20233;-77
2023/04/03 00:58:44;;;;;;;4.50;2.13;;;-1.80;99.90;;;;;;4997716;28;20255;-75
2023/04/03 01:01:16;;;;;;;9.43;2.20;;;-1.80;99.90;;;;;;5000199;28;20225;-77
2023/04/03 01:03:43;;;;;;;6.20;2.20;;;-1.80;99.90;;;;;;4997949;23;20228;-75
2023/04/03 01:06:11;;;;;;;7.77;2.13;;;-1.80;99.90;;;;;;5030545;23;20216;-74
2023/04/03 01:08:39;;;;;;;7.17;2.57;;;-1.80;99.90;;;;;;4990889;23;20232;-74
2023/04/03 01:11:06;;;;;;;8.53;2.30;;;-1.80;99.90;;;;;;4989486;28;20295;-74
2023/04/03 01:13:34;;;;;;;5.20;2.13;;;-1.80;99.90;;;;;;4984019;28;20301;-84
2023/04/03 01:16:04;;;;;;;5.97;2.40;;;-1.80;99.90;;;;;;4977263;28;20426;-77
2023/04/03 01:18:32;;;;;;;7.50;2.50;;;-1.80;99.90;;;;;;4977148;28;20228;-75
2023/04/03 01:21:24;;;;;;;5.60;2.17;;;-1.90;99.90;;;;;;4978593;23;20229;-77
2023/04/03 01:24:09;;;;;;;5.10;2.30;;;-1.90;99.90;;;;;;4999849;23;20232;-74
2023/04/03 01:26:37;;;;;;;4.97;2.20;;;-1.90;99.90;;;;;;5004052;23;20239;-74
2023/04/03 01:29:05;;;;;;;8.17;2.70;;;-1.90;99.90;;;;;;5015181;28;20220;-77
2023/04/03 01:31:44;;;;;;;5.67;2.30;;;-1.90;99.90;;;;;;5013170;23;20301;-77
2023/04/03 01:34:11;;;;;;;4.47;2.40;;;-1.90;99.90;;;;;;4998744;28;20225;-76
2023/04/03 01:36:38;;;;;;;11.63;2.47;;;-1.90;99.90;;;;;;4999310;23;20229;-74
2023/04/03 01:39:05;;;;;;;5.47;2.33;;;-1.90;99.90;;;;;;4993113;28;20232;-78
2023/04/03 01:41:33;;;;;;;5.33;2.20;;;-1.90;99.90;;;;;;4997893;28;20229;-74
2023/04/03 01:44:08;;;;;;;6.87;2.17;;;-2.00;99.90;;;;;;5003288;23;20213;-78
2023/04/03 01:49:04;;;;;;;7.07;2.90;;;-2.00;99.90;;;;;;5020028;28;20873;-75
2023/04/03 01:51:31;;;;;;;7.60;2.27;;;-2.00;99.90;;;;;;5019030;28;20704;-75
2023/04/03 01:53:58;;;;;;;7.60;2.37;;;-2.00;99.90;;;;;;4994877;23;20228;-75
2023/04/03 01:56:25;;;;;;;5.03;2.40;;;-2.00;99.90;;;;;;4993163;28;20252;-75
2023/04/03 01:58:52;;;;;;;6.27;2.30;;;-2.00;99.90;;;;;;4979756;23;20240;-77
2023/04/03 02:01:18;;;;;;;7.10;2.40;;;-2.00;99.90;;;;;;5015108;28;20231;-77
2023/04/03 02:03:45;;;;;;;5.67;2.20;;;-2.10;99.90;;;;;;5038320;28;20252;-77
2023/04/03 02:06:13;;;;;;;8.07;2.33;;;-2.10;99.90;;;;;;5017505;28;20266;-74
2023/04/03 02:08:42;;;;;;;5.60;2.30;;;-2.00;99.90;;;;;;4997724;28;20227;-77
2023/04/03 02:11:09;;;;;;;5.37;2.53;;;-2.10;99.90;;;;;;4998446;28;20323;-75
2023/04/03 02:13:36;;;;;;;5.53;2.17;;;-2.10;99.90;;;;;;5002256;28;20229;-75
2023/04/03 02:16:08;;;;;;;6.57;1.97;;;-2.10;99.90;;;;;;4993818;28;20231;-74
2023/04/03 02:21:27;;;;;;;8.30;2.37;;;-2.20;99.90;;;;;;4986762;23;20243;-78
2023/04/03 02:23:54;;;;;;;10.60;2.30;;;-2.20;99.90;;;;;;4996632;23;20777;-80
2023/04/03 02:28:48;;;;;;;8.00;2.87;;;-2.20;99.90;;;;;;4978013;28;20745;-77
2023/04/03 02:31:15;;;;;;;7.30;2.50;;;-2.20;99.90;;;;;;4993505;28;20257;-74
2023/04/03 02:33:44;;;;;;;8.10;2.00;;;-2.20;99.90;;;;;;4981339;28;20225;-74
2023/04/03 02:36:14;;;;;;;6.53;2.17;;;-2.30;99.90;;;;;;4978796;23;20277;-74
2023/04/03 02:38:45;;;;;;;5.83;2.40;;;-2.30;99.90;;;;;;4983880;23;20220;-74
2023/04/03 02:41:12;;;;;;;5.70;2.40;;;-2.30;99.90;;;;;;4988439;28;20213;-74
2023/04/03 02:43:39;;;;;;;7.67;2.07;;;-2.30;99.90;;;;;;5003560;23;20224;-74
2023/04/03 02:46:07;;;;;;;7.13;2.03;;;-2.30;99.90;;;;;;4978584;28;20263;-74
2023/04/03 02:48:34;;;;;;;3.63;2.27;;;-2.30;99.90;;;;;;4977054;28;20249;-75
2023/04/03 02:51:01;;;;;;;11.13;2.60;;;-2.30;99.90;;;;;;4982534;23;20222;-78
2023/04/03 02:53:27;;;;;;;7.10;2.47;;;-2.30;99.90;;;;;;4974971;28;20891;-79
2023/04/03 02:55:56;;;;;;;6.93;2.57;;;-2.30;99.90;;;;;;4997421;23;20630;-81
2023/04/03 02:58:23;;;;;;;7.03;2.80;;;-2.30;99.90;;;;;;4988941;23;20665;-78
2023/04/03 03:00:51;;;;;;;7.43;2.17;;;-2.30;99.90;;;;;;4987520;28;21001;-76
2023/04/03 03:03:18;;;;;;;7.10;2.23;;;-2.30;99.90;;;;;;4977423;28;20216;-77
2023/04/03 03:05:44;;;;;;;5.90;2.40;;;-2.30;99.90;;;;;;4996684;28;20231;-77
2023/04/03 03:08:12;;;;;;;8.67;3.77;;;-2.30;99.90;;;;;;4981215;28;20228;-76
2023/04/03 03:10:38;;;;;;;9.10;3.60;;;-2.40;99.90;;;;;;4981130;28;20700;-76
2023/04/03 03:13:06;;;;;;;10.93;3.13;;;-2.40;99.90;;;;;;4980473;28;20586;-76
2023/04/03 03:15:33;;;;;;;6.53;2.80;;;-2.40;99.90;;;;;;4981094;28;20951;-77
2023/04/03 03:18:00;;;;;;;10.70;3.03;;;-2.40;99.90;;;;;;4978176;28;20312;-77
2023/04/03 03:20:27;;;;;;;7.10;3.40;;;-2.40;99.90;;;;;;4980355;28;20286;-77
2023/04/03 03:22:54;;;;;;;6.73;3.40;;;-2.40;99.90;;;;;;4981989;28;20742;-77
2023/04/03 03:25:21;;;;;;;6.17;2.93;;;-2.40;99.90;;;;;;4979622;28;20230;-77
2023/04/03 03:27:48;;;;;;;10.50;3.40;;;-2.40;99.90;;;;;;4977282;28;20229;-77
2023/04/03 03:30:16;;;;;;;4.63;2.73;;;-2.40;99.90;;;;;;4983013;28;20317;-77
2023/04/03 03:32:43;;;;;;;7.07;3.10;;;-2.40;99.90;;;;;;4997753;28;20212;-77
2023/04/03 03:35:10;;;;;;;4.50;3.00;;;-2.40;99.90;;;;;;4980533;28;20693;-77
2023/04/03 03:37:37;;;;;;;7.33;3.07;;;-2.40;99.90;;;;;;4980288;28;20263;-77
2023/04/03 03:40:05;;;;;;;7.03;3.23;;;-2.40;99.90;;;;;;4980208;28;20222;-77
2023/04/03 03:42:32;;;;;;;7.53;3.50;;;-2.40;99.90;;;;;;4978451;28;20276;-77
2023/04/03 03:44:59;;;;;;;8.07;3.10;;;-2.40;99.90;;;;;;4981321;28;20364;-77
2023/04/03 03:47:27;;;;;;;7.07;3.23;;;-2.40;99.90;;;;;;4995199;28;20647;-78
2023/04/03 03:49:54;;;;;;;8.47;3.43;;;-2.40;99.90;;;;;;4981072;28;20872;-77
2023/04/03 03:52:21;;;;;;;12.73;3.23;;;-2.40;99.90;;;;;;4980854;28;20232;-77
2023/04/03 03:54:48;;;;;;;10.80;3.77;;;-2.40;99.90;;;;;;4980965;28;20302;-78
2023/04/03 03:57:16;;;;;;;6.33;2.93;;;-2.40;99.90;;;;;;4992280;28;20221;-77
2023/04/03 03:59:44;;;;;;;6.97;3.20;;;-2.40;99.90;;;;;;4982514;28;21184;-78
2023/04/03 04:02:11;;;;;;;7.93;4.07;;;-2.40;99.90;;;;;;4980873;28;20227;-76
2023/04/03 04:04:39;;;;;;;9.20;3.57;;;-2.40;99.90;;;;;;4979117;28;20229;-77
2023/04/03 04:07:06;;;;;;;6.30;3.40;;;-2.40;99.90;;;;;;4977822;28;20312;-77
2023/04/03 04:09:34;;;;;;;6.60;3.53;;;-2.50;99.90;;;;;;4995637;28;20233;-77
2023/04/03 04:12:01;;;;;;;9.20;3.63;;;-2.50;99.90;;;;;;4979758;28;20232;-77
2023/04/03 04:14:28;;;;;;;8.27;3.70;;;-2.50;99.90;;;;;;4994407;28;20225;-77
2023/04/03 04:16:56;;;;;;;8.37;3.90;;;-2.60;99.90;;;;;;4975615;28;20221;-78
2023/04/03 04:19:25;;;;;;;10.33;3.80;;;-2.60;99.90;;;;;;4977422;28;20524;-79
2023/04/03 04:21:54;;;;;;;8.03;3.63;;;-2.60;99.90;;;;;;4974035;28;20401;-78
2023/04/03 04:24:22;;;;;;;8.97;4.00;;;-2.70;99.90;;;;;;4980758;28;21199;-78
2023/04/03 04:26:51;;;;;;;7.10;3.57;;;-2.70;99.90;;;;;;4971798;28;20218;-79
2023/04/03 04:29:19;;;;;;;10.50;4.10;;;-2.70;99.90;;;;;;4992899;28;20252;-78
2023/04/03 04:31:49;;;;;;;7.50;3.73;;;-2.70;99.90;;;;;;4980738;28;20272;-78
2023/04/03 04:34:17;;;;;;;9.33;3.87;;;-2.70;99.90;;;;;;4980676;28;20237;-79
2023/04/03 04:36:44;;;;;;;7.43;3.90;;;-2.80;99.90;;;;;;4975050;28;20229;-78
2023/04/03 04:39:12;;;;;;;9.53;4.30;;;-2.80;99.90;;;;;;4977543;28;20230;-78
2023/04/03 04:41:40;;;;;;;9.40;4.00;;;-2.80;99.90;;;;;;4980720;28;20235;-78
2023/04/03 04:44:08;;;;;;;6.70;4.27;;;-2.90;99.90;;;;;;4980097;28;20225;-77
2023/04/03 04:46:36;;;;;;;9.10;4.40;;;-2.80;99.90;;;;;;4977042;28;20311;-78
2023/04/03 04:49:03;;;;;;;7.57;4.23;;;-2.90;99.90;;;;;;4980599;28;20809;-79
2023/04/03 04:51:31;;;;;;;9.43;4.50;;;-2.90;99.90;;;;;;4980111;28;20723;-79
2023/04/03 04:53:58;;;;;;;10.07;4.70;;;-2.90;99.90;;;;;;4979106;28;20217;-78
2023/04/03 04:56:26;;;;;;;8.63;4.20;;;-2.90;99.90;;;;;;4974368;28;20222;-79
2023/04/03 04:58:55;;;;;;;10.03;4.17;;;-2.90;99.90;;;;;;4974868;28;20225;-80
2023/04/03 05:01:23;;;;;;;12.60;4.87;;;-2.90;99.90;;;;;;4977638;28;20217;-80
2023/04/03 05:03:57;;;;;;;8.63;4.10;;;-2.90;99.90;;;;;;4980502;28;20232;-79
2023/04/03 05:06:25;;;;;;;8.20;4.43;;;-2.90;99.90;;;;;;4978559;28;20250;-79
2023/04/03 05:08:52;;;;;;;11.60;4.00;;;-2.90;99.90;;;;;;4976697;28;20681;-79
2023/04/03 05:11:20;;;;;;;8.67;3.97;;;-2.80;99.90;;;;;;4979832;28;20278;-79
2023/04/03 05:13:52;;;;;;;9.00;4.30;;;-2.80;99.90;;;;;;4978197;28;20232;-79
2023/04/03 05:16:19;;;;;;;11.30;4.83;;;-2.80;99.90;;;;;;4973344;28;20852;-80
2023/04/03 05:18:46;;;;;;;9.93;4.33;;;-2.80;99.90;;;;;;4979546;28;20605;-80
2023/04/03 05:21:18;;;;;;;17.17;8.90;;;-2.70;99.90;;;;;;4979173;28;20221;-79
2023/04/03 05:23:46;;;;;;;86.37;62.50;;;-2.80;99.90;;;;;;4978085;28;20315;-79
2023/04/03 05:26:14;;;;;;;22.87;15.57;;;-2.70;99.90;;;;;;4979857;28;20225;-79
2023/04/03 05:28:41;;;;;;;15.37;8.33;;;-2.70;99.90;;;;;;4977502;28;20300;-80
2023/04/03 05:31:10;;;;;;;22.10;19.03;;;-2.60;99.90;;;;;;4977180;28;20226;-79
2023/04/03 05:33:37;;;;;;;18.57;14.23;;;-2.60;99.90;;;;;;4977101;28;20719;-80
2023/04/03 05:36:07;;;;;;;23.73;21.27;;;-2.50;99.90;;;;;;4976320;28;20233;-80
2023/04/03 05:38:38;;;;;;;19.33;15.63;;;-2.50;99.90;;;;;;4977010;28;20233;-79
2023/04/03 05:41:05;;;;;;;11.63;7.20;;;-2.30;99.90;;;;;;4976917;28;20892;-80
2023/04/03 05:43:34;;;;;;;24.50;16.60;;;-2.20;99.90;;;;;;4972104;28;20226;-80
2023/04/03 05:46:02;;;;;;;11.17;7.53;;;-2.10;99.90;;;;;;4991441;28;20225;-79
2023/04/03 05:48:31;;;;;;;9.53;4.97;;;-1.90;99.90;;;;;;4988063;28;20684;-80
2023/04/03 05:50:59;;;;;;;11.33;6.50;;;-1.80;99.90;;;;;;4971855;28;20306;-80
2023/04/03 05:53:29;;;;;;;12.37;7.10;;;-1.60;99.90;;;;;;4969819;28;20727;-79
2023/04/03 05:55:58;;;;;;;10.20;7.23;;;-1.40;99.90;;;;;;4972936;28;20708;-79
2023/04/03 05:58:26;;;;;;;10.67;4.40;;;-1.20;99.90;;;;;;4974985;28;20227;-80
2023/04/03 06:00:53;;;;;;;10.83;5.27;;;-1.00;99.90;;;;;;4971038;28;20764;-79
2023/04/03 06:03:20;;;;;;;8.20;4.10;;;-0.70;99.90;;;;;;4958789;28;20230;-80
2023/04/03 06:05:48;;;;;;;8.17;5.33;;;-0.40;99.90;;;;;;4978846;28;20230;-79
2023/04/03 06:08:15;;;;;;;6.97;3.90;;;0.00;99.90;;;;;;4993110;28;20228;-80
2023/04/03 06:10:41;;;;;;;8.30;4.77;;;0.30;99.90;;;;;;4979546;28;20238;-80
2023/04/03 06:13:08;;;;;;;10.07;4.20;;;0.70;99.90;;;;;;4980705;28;20233;-80
2023/04/03 06:15:35;;;;;;;7.30;3.03;;;1.00;99.90;;;;;;4982409;28;20261;-80
2023/04/03 06:18:02;;;;;;;7.07;2.70;;;1.20;99.90;;;;;;4992159;28;20248;-80
2023/04/03 06:20:29;;;;;;;4.57;2.70;;;1.40;99.90;;;;;;4981644;28;20234;-79
2023/04/03 06:22:57;;;;;;;4.20;2.53;;;1.60;99.90;;;;;;4981499;28;20767;-80
2023/04/03 06:25:24;;;;;;;8.13;2.40;;;1.70;99.90;;;;;;4984819;28;20241;-80
2023/04/03 06:27:50;;;;;;;7.23;2.30;;;1.90;99.90;;;;;;4982863;28;20228;-80
2023/04/03 06:30:17;;;;;;;4.57;2.30;;;2.10;99.90;;;;;;4982118;28;20246;-81
2023/04/03 06:32:44;;;;;;;5.90;2.43;;;2.20;99.90;;;;;;4984284;28;20312;-79
2023/04/03 06:35:11;;;;;;;5.00;2.10;;;2.20;99.90;;;;;;4982245;28;20231;-79
2023/04/03 06:37:37;;;;;;;6.13;2.40;;;2.30;99.90;;;;;;4983594;28;20236;-80
2023/04/03 06:40:07;;;;;;;4.63;2.03;;;2.30;99.90;;;;;;4984303;28;20248;-81
2023/04/03 06:42:34;;;;;;;8.77;4.90;;;2.20;99.90;;;;;;4985060;28;20238;-79
2023/04/03 06:45:11;;;;;;;9.47;4.90;;;2.20;99.90;;;;;;4985368;28;20235;-79
2023/04/03 06:47:37;;;;;;;7.03;2.70;;;2.20;99.90;;;;;;5000877;28;20292;-81
2023/04/03 06:50:06;;;;;;;6.67;2.43;;;2.30;99.90;;;;;;5000061;28;21007;-80
2023/04/03 06:52:33;;;;;;;6.17;1.73;;;2.30;99.90;;;;;;4987580;28;20230;-79
2023/04/03 06:55:00;;;;;;;7.00;1.90;;;2.30;99.90;;;;;;4984456;28;20229;-79
2023/04/03 06:57:28;;;;;;;5.83;1.80;;;2.30;99.90;;;;;;4982268;28;20680;-81
2023/04/03 06:59:55;;;;;;;5.47;1.87;;;2.40;99.90;;;;;;4986406;28;20301;-80
2023/04/03 07:02:22;;;;;;;6.20;2.60;;;2.40;99.90;;;;;;4982387;28;20219;-80
2023/04/03 07:04:49;;;;;;;5.73;3.50;;;2.50;99.90;;;;;;4992636;28;20707;-82
2023/04/03 07:07:17;;;;;;;3.83;1.80;;;2.60;99.90;;;;;;5003947;28;20243;-81
2023/04/03 07:09:44;;;;;;;3.67;1.63;;;2.70;99.90;;;;;;4987790;28;20228;-78
2023/04/03 07:12:10;;;;;;;6.13;1.97;;;2.70;99.90;;;;;;4986681;28;20581;-79
2023/04/03 07:14:38;;;;;;;3.97;1.73;;;2.80;99.90;;;;;;4984721;28;20294;-78
2023/04/03 07:17:06;;;;;;;5.97;1.90;;;2.90;99.90;;;;;;4986104;28;20221;-81
2023/04/03 07:19:32;;;;;;;5.40;2.13;;;2.90;99.90;;;;;;4983331;28;20363;-80
2023/04/03 07:21:59;;;;;;;6.77;1.63;;;2.90;99.90;;;;;;4986757;28;20241;-80
2023/04/03 07:24:26;;;;;;;5.53;1.90;;;3.00;99.90;;;;;;4979819;28;20240;-80
2023/04/03 07:26:53;;;;;;;4.53;1.60;;;3.10;99.90;;;;;;4996136;28;20659;-80
2023/04/03 07:29:21;;;;;;;6.30;2.60;;;3.10;99.90;;;;;;4987876;28;20231;-80
2023/04/03 07:31:49;;;;;;;6.03;1.90;;;3.20;99.90;;;;;;4986115;28;20254;-79
2023/04/03 07:34:16;;;;;;;4.73;1.93;;;3.20;99.90;;;;;;4988558;28;20220;-80
2023/04/03 07:36:42;;;;;;;5.23;1.90;;;3.30;99.90;;;;;;4984997;28;20261;-80
2023/04/03 07:39:09;;;;;;;4.87;1.50;;;3.30;99.90;;;;;;4986422;28;20227;-81
2023/04/03 07:41:36;;;;;;;8.40;1.50;;;3.30;99.90;;;;;;4981763;28;20223;-80
2023/04/03 07:44:04;;;;;;;3.33;1.50;;;3.30;99.90;;;;;;4982919;28;20688;-79
2023/04/03 07:46:31;;;;;;;3.43;1.60;;;3.30;99.90;;;;;;4983905;28;20262;-80
2023/04/03 07:48:59;;;;;;;3.57;1.10;;;3.30;99.90;;;;;;4987365;28;20228;-80
2023/04/03 07:51:26;;;;;;;2.83;1.27;;;3.30;99.90;;;;;;4986648;28;20235;-80
2023/04/03 07:53:52;;;;;;;3.23;1.30;;;3.40;99.90;;;;;;4982276;28;20248;-80
2023/04/03 07:56:20;;;;;;;4.57;1.50;;;3.50;99.90;;;;;;4980119;28;20224;-80
2023/04/03 07:58:47;;;;;;;2.80;1.10;;;3.80;99.90;;;;;;4982264;28;20895;-80
2023/04/03 08:01:13;;;;;;;2.43;1.17;;;4.30;99.90;;;;;;4985015;28;20228;-81
2023/04/03 08:03:40;;;;;;;5.97;1.70;;;4.90;99.90;;;;;;4985094;28;20224;-80
2023/04/03 08:06:10;;;;;;;2.53;1.20;;;5.60;99.90;;;;;;4986061;28;20237;-83
2023/04/03 08:08:36;;;;;;;2.33;1.37;;;6.30;99.90;;;;;;4982606;28;20232;-79
2023/04/03 08:11:05;;;;;;;4.40;1.60;;;7.00;99.90;;;;;;4982076;28;20233;-79
2023/04/03 08:13:33;;;;;;;3.43;1.27;;;7.70;99.90;;;;;;4983261;28;20247;-79
2023/04/03 08:16:08;;;;;;;2.97;0.90;;;8.40;99.90;;;;;;4976527;28;20228;-80
2023/04/03 08:18:35;;;;;;;3.77;1.13;;;9.10;99.90;;;;;;4968687;28;20589;-81
2023/04/03 08:21:05;;;;;;;4.03;1.00;;;9.90;99.80;;;;;;4965567;28;20230;-81
2023/04/03 08:23:33;;;;;;;5.03;1.20;;;10.40;98.50;;;;;;4962922;28;20283;-82
2023/04/03 08:26:00;;;;;;;4.93;1.03;;;10.80;97.30;;;;;;4977206;28;20627;-82
2023/04/03 08:28:27;;;;;;;3.07;1.20;;;11.20;96.90;;;;;;4970185;28;20235;-81
2023/04/03 08:30:54;;;;;;;4.93;3.10;;;11.50;96.10;;;;;;4978401;28;20230;-79
2023/04/03 08:33:20;;;;;;;3.73;1.43;;;11.90;95.90;;;;;;4979776;28;20715;-79
2023/04/03 08:35:47;;;;;;;3.30;1.20;;;12.40;95.40;;;;;;4987079;28;20940;-79
2023/04/03 08:38:13;;;;;;;2.00;1.03;;;12.80;95.10;;;;;;4981011;28;20219;-79
2023/04/03 08:40:42;;;;;;;3.07;1.20;;;13.40;93.90;;;;;;4982095;28;20261;-80
2023/04/03 08:43:31;;;;;;;2.80;0.90;;;13.90;93.30;;;;;;4985278;28;20226;-80
2023/04/03 08:46:05;;;;;;;2.27;1.20;;;14.40;89.10;;;;;;4986555;28;20236;-82
2023/04/03 08:48:36;;;;;;;2.77;1.10;;;14.90;89.80;;;;;;4986134;28;20228;-81
2023/04/03 08:51:05;;;;;;;2.90;1.20;;;15.40;88.90;;;;;;4979922;28;22150;-82
2023/04/03 08:53:36;;;;;;;4.60;2.70;;;15.70;85.40;;;;;;4966329;28;20671;-81
2023/04/03 08:56:09;;;;;;;2.50;1.00;;;16.10;81.10;;;;;;4975771;28;20230;-81
2023/04/03 08:58:44;;;;;;;2.83;0.80;;;16.40;80.70;;;;;;4978159;28;20225;-81
2023/04/03 09:01:20;;;;;;;2.60;1.00;;;16.70;78.70;;;;;;4979797;28;20792;-84
2023/04/03 09:03:47;;;;;;;3.17;1.30;;;17.00;72.70;;;;;;4980938;28;20224;-80
2023/04/03 09:06:16;;;;;;;2.73;0.80;;;17.00;73.90;;;;;;4978232;28;20600;-79
2023/04/03 09:08:48;;;;;;;1.20;0.60;;;17.10;70.70;;;;;;4982249;28;20226;-79
2023/04/03 09:11:22;;;;;;;2.23;0.73;;;17.10;69.70;;;;;;4978161;28;20221;-79
2023/04/03 09:13:55;;;;;;;1.80;0.90;;;17.10;70.20;;;;;;4978729;28;20230;-87
2023/04/03 09:16:29;;;;;;;1.90;0.90;;;17.30;69.10;;;;;;4978157;28;20774;-82
2023/04/03 09:19:07;;;;;;;2.10;0.90;;;17.50;70.30;;;;;;4977565;28;20229;-80
2023/04/03 09:21:42;;;;;;;3.17;0.80;;;17.80;68.50;;;;;;4977666;28;20319;-84
2023/04/03 09:24:11;;;;;;;2.43;1.00;;;18.10;66.50;;;;;;4983211;28;20651;-82
2023/04/03 09:26:44;;;;;;;2.50;1.10;;;18.20;62.00;;;;;;4974316;28;20232;-85
2023/04/03 09:29:17;;;;;;;1.33;0.73;;;18.10;63.20;;;;;;4973487;28;20233;-80
2023/04/03 09:31:46;;;;;;;2.07;0.80;;;17.90;59.30;;;;;;4973559;28;20292;-83
2023/04/03 09:34:21;;;;;;;2.20;1.00;;;17.90;62.70;;;;;;4975034;28;20278;-83
2023/04/03 09:36:51;;;;;;;1.70;1.00;;;17.80;56.50;;;;;;4982507;28;20284;-83
2023/04/03 09:39:20;;;;;;;1.87;0.80;;;17.80;59.70;;;;;;4984412;28;20219;-84
2023/04/03 09:42:00;;;;;;;1.80;0.70;;;17.90;61.20;;;;;;4977871;28;20300;-80
2023/04/03 09:44:29;;;;;;;2.50;1.30;;;18.00;60.10;;;;;;4978807;28;20791;-83
2023/04/03 09:46:56;;;;;;;1.83;1.07;;;18.10;61.90;;;;;;4978484;28;20630;-85
2023/04/03 09:49:23;;;;;;;1.73;1.00;;;18.20;61.10;;;;;;4981080;28;20226;-80
2023/04/03 09:51:50;;;;;;;2.97;2.03;;;18.20;53.60;;;;;;4980261;28;20233;-84
2023/04/03 09:54:37;;;;;;;2.70;0.80;;;18.10;57.60;;;;;;4981652;28;20218;-83
2023/04/03 09:57:09;;;;;;;3.00;1.13;;;18.00;56.20;;;;;;4975950;28;20268;-85
2023/04/03 09:59:42;;;;;;;1.47;0.80;;;17.90;55.30;;;;;;4976001;28;20253;-83
2023/04/03 10:02:24;;;;;;;2.30;1.00;;;17.80;53.70;;;;;;4989654;28;20235;-82
2023/04/03 10:04:50;;;;;;;1.70;0.87;;;17.60;54.90;;;;;;4982710;28;20233;-84
2023/04/03 10:07:29;;;;;;;2.57;0.90;;;17.40;56.40;;;;;;4977954;28;20229;-82
2023/04/03 10:09:57;;;;;;;2.37;1.10;;;17.30;53.80;;;;;;4979803;28;20225;-80
2023/04/03 10:12:25;;;;;;;3.83;0.90;;;17.20;55.30;;;;;;4982700;28;20226;-81
2023/04/03 10:14:56;;;;;;;2.57;1.33;;;17.10;54.70;;;;;;4989111;28;20249;-80
2023/04/03 10:17:34;;;;;;;3.03;1.20;;;17.10;55.50;;;;;;4986328;28;20286;-84
2023/04/03 10:20:11;;;;;;;2.93;0.90;;;17.20;55.70;;;;;;4984812;28;20718;-80
2023/04/03 10:22:47;;;;;;;1.93;1.07;;;17.20;54.20;;;;;;4982530;28;20229;-84
2023/04/03 10:25:23;;;;;;;1.57;0.90;;;17.20;55.10;;;;;;4983211;28;20795;-80
2023/04/03 10:27:57;;;;;;;1.97;1.00;;;17.20;55.30;;;;;;4983131;28;20313;-84
2023/04/03 10:30:35;;;;;;;1.60;0.80;;;17.30;55.20;;;;;;4984624;28;20958;-82
2023/04/03 10:33:18;;;;;;;2.27;0.80;;;17.50;53.40;;;;;;4979398;28;20225;-80
2023/04/03 10:35:54;;;;;;;2.10;1.03;;;17.50;53.80;;;;;;4983006;28;20230;-81
2023/04/03 10:38:29;;;;;;;1.67;0.90;;;17.50;55.70;;;;;;4984919;28;20310;-81
2023/04/03 10:41:01;;;;;;;2.40;0.97;;;17.60;55.30;;;;;;4997388;28;20284;-83
2023/04/03 10:43:37;;;;;;;2.33;1.10;;;17.60;54.60;;;;;;4984458;28;20236;-82
2023/04/03 10:46:09;;;;;;;1.93;1.00;;;17.60;53.50;;;;;;4985856;28;20228;-79
2023/04/03 10:48:45;;;;;;;1.77;1.00;;;17.70;55.60;;;;;;4984252;28;20314;-80
2023/04/03 10:51:23;;;;;;;2.87;1.60;;;17.70;52.60;;;;;;4978822;28;20228;-80
2023/04/03 10:53:57;;;;;;;2.27;1.23;;;17.60;51.50;;;;;;4985553;28;20233;-81
2023/04/03 10:56:33;;;;;;;2.83;1.00;;;17.40;51.40;;;;;;4982405;28;20291;-79
2023/04/03 10:59:08;;;;;;;2.87;1.20;;;17.20;51.70;;;;;;4985640;28;20711;-82
2023/04/03 11:01:40;;;;;;;3.17;1.10;;;17.00;53.40;;;;;;4993189;28;20237;-83
2023/04/03 11:04:07;;;;;;;3.43;1.30;;;16.90;54.10;;;;;;4982155;28;20226;-79
2023/04/03 11:06:40;;;;;;;2.40;1.10;;;17.00;54.50;;;;;;4986290;28;20779;-81
2023/04/03 11:09:17;;;;;;;2.63;0.90;;;17.00;50.60;;;;;;4983278;28;20288;-80
2023/04/03 11:11:45;;;;;;;2.33;1.53;;;16.90;52.70;;;;;;5000358;28;20228;-81
2023/04/03 11:14:23;;;;;;;5.93;3.77;;;16.80;51.80;;;;;;4984833;28;20315;-81
2023/04/03 11:16:57;;;;;;;2.40;1.20;;;16.40;50.90;;;;;;4979310;28;20240;-86
2023/04/03 11:19:35;;;;;;;2.00;0.90;;;15.90;50.40;;;;;;4982753;28;20270;-80
2023/04/03 11:22:09;;;;;;;3.83;2.80;;;15.20;50.60;;;;;;4997778;28;20591;-80
2023/04/03 11:24:41;;;;;;;2.70;1.00;;;14.60;52.20;;;;;;4982245;28;20689;-84
2023/04/03 11:27:16;;;;;;;3.53;1.27;;;14.00;52.60;;;;;;4980763;28;20965;-82
2023/04/03 11:29:47;;;;;;;1.90;0.90;;;13.40;52.70;;;;;;4983415;28;20469;-81
2023/04/03 11:32:33;;;;;;;1.47;0.60;;;12.90;53.60;;;;;;4976908;28;20246;-81
2023/04/03 11:35:03;;;;;;;1.77;0.80;;;12.60;52.60;;;;;;4989353;28;20750;-83
2023/04/03 11:37:38;;;;;;;2.63;1.17;;;12.20;53.60;;;;;;4984945;28;20232;-82
2023/04/03 11:40:08;;;;;;;0.93;0.70;;;12.10;54.50;;;;;;4987475;28;20223;-81
2023/04/03 11:42:42;;;;;;;2.10;0.97;;;12.00;55.10;;;;;;5001383;28;20222;-81
2023/04/03 11:45:35;;;;;;;2.30;0.80;;;12.10;54.20;;;;;;4992078;28;20233;-84
2023/04/03 11:48:03;;;;;;;2.50;1.10;;;12.10;54.20;;;;;;5003616;28;20227;-82
2023/04/03 11:50:45;;;;;;;2.87;0.90;;;12.20;56.30;;;;;;4991900;28;20229;-84
2023/04/03 11:53:39;;;;;;;3.50;1.00;;;12.40;55.90;;;;;;4985834;28;20218;-81
2023/04/03 11:56:33;;;;;;;2.53;0.97;;;12.60;55.60;;;;;;4988231;28;20320;-85
2023/04/03 11:59:22;;;;;;;2.00;0.90;;;12.90;55.70;;;;;;4979710;28;20231;-83
2023/04/03 12:01:51;;;;;;;2.37;0.90;;;13.10;55.00;;;;;;4978602;28;20705;-81
2023/04/03 12:04:22;;;;;;;3.47;0.97;;;13.40;56.30;;;;;;4989071;28;20229;-85
2023/04/03 12:07:09;;;;;;;5.10;2.10;;;13.50;56.20;;;;;;4986013;28;20240;-83
2023/04/03 12:10:01;;;;;;;7.80;4.67;;;13.60;54.10;;;;;;4980907;28;20606;-87
2023/04/03 12:12:35;;;;;;;5.67;3.10;;;13.60;54.50;;;;;;4983486;28;20316;-89
2023/04/03 12:15:51;;;;;;;1.70;0.90;;;13.40;56.00;;;;;;4984109;28;20226;-82
2023/04/03 12:18:45;;;;;;;1.57;0.90;;;13.20;53.10;;;;;;4984152;28;20301;-84
2023/04/03 12:21:13;;;;;;;3.50;1.27;;;12.90;52.90;;;;;;4984824;28;20788;-81
2023/04/03 12:24:05;;;;;;;3.03;1.40;;;12.60;54.30;;;;;;4984538;28;20993;-81
2023/04/03 12:26:37;;;;;;;3.03;1.20;;;12.30;55.00;;;;;;4979086;28;20315;-82
2023/04/03 12:29:14;;;;;;;3.13;1.30;;;12.10;55.10;;;;;;4982796;28;20216;-80
2023/04/03 12:31:49;;;;;;;3.63;1.10;;;12.10;55.90;;;;;;4980288;28;21092;-80
2023/04/03 12:34:35;;;;;;;1.97;0.80;;;12.20;55.00;;;;;;4980422;28;20267;-81
2023/04/03 12:37:09;;;;;;;3.10;1.53;;;12.30;54.80;;;;;;4981682;28;20282;-80
2023/04/03 12:40:06;;;;;;;2.43;0.90;;;12.30;55.10;;;;;;4984686;28;20325;-82
2023/04/03 12:43:10;;;;;;;3.30;0.90;;;12.30;54.90;;;;;;4980414;28;20225;-79
2023/04/03 12:45:44;;;;;;;2.40;0.93;;;12.20;53.80;;;;;;4982293;28;20231;-80
2023/04/03 12:48:16;;;;;;;2.73;0.70;;;12.10;54.60;;;;;;4979512;28;20234;-80
2023/04/03 12:50:47;;;;;;;1.73;0.90;;;12.00;54.20;;;;;;4982273;28;20294;-82
2023/04/03 12:53:17;;;;;;;5.70;1.10;;;11.90;55.30;;;;;;4983957;28;20234;-80
2023/04/03 12:55:44;;;;;;;9.70;6.90;;;11.90;55.60;;;;;;4982791;28;20243;-80
2023/04/03 12:58:21;;;;;;;4.53;1.80;;;11.80;54.90;;;;;;4981500;28;20270;-81
2023/04/03 13:01:00;;;;;;;2.50;1.00;;;11.70;56.10;;;;;;4983334;28;20223;-85
2023/04/03 13:03:28;;;;;;;2.70;1.03;;;11.60;53.10;;;;;;4979807;28;20293;-80
2023/04/03 13:06:00;;;;;;;3.13;1.00;;;11.50;54.80;;;;;;4982933;28;20684;-82
2023/04/03 13:08:27;;;;;;;2.17;0.80;;;11.30;53.10;;;;;;4984444;28;20234;-84
2023/04/03 13:10:58;;;;;;;3.57;1.00;;;11.30;55.00;;;;;;4982890;28;20244;-80
2023/04/03 13:13:26;;;;;;;1.03;0.70;;;11.20;55.60;;;;;;4984245;28;20243;-81
2023/04/03 13:15:54;;;;;;;3.13;0.90;;;11.30;55.10;;;;;;4982785;28;20234;-80